メインページ
METAR-TAF:

METAR-TAF

空港 :

アムステルダム, オランダ

アムステルダム・スキポール空港

緯度: 52-18N, 経度: 004-46E, 海抜: -4m

現時点の気象観測

当レポートは15分前の23:25(UTC)に作成
の風 6kt
気温 6°C
湿度 81%
気圧 1021 hPa
視程10km以上
1,500メートル以下は雲なし、積乱雲なし

METAR: EHAM 232325Z 17006KT CAVOK 06/03 Q1021 NOSIG

時間: 01:40 (23:40 UTC)

予報

当レポートは6時間24分前の17:16(UTC)に作成
予報は23日の 18時(UTC)から 24日の 24時(UTC)まで有効
西の風 6kt
視程10km以上
1,500メートル以下は雲なし、積乱雲なし
23日の 22時(UTC)から 24日の 01時(UTC)まで徐々に
南/南西の風 10kt
24日の 06時(UTC)から 24日の 09時(UTC)まで徐々に
西/南西の風 17kt
高度3000ftの千切れ雲あり
確率 30% :
24日の 08時(UTC)から 24日の 12時(UTC)まで一時的に
視程: 7000m
高度1500ftの雲は散在している
高度2000ftの千切れ雲あり
小雨, 霧雨
24日の 14時(UTC)から 24日の 17時(UTC)まで徐々に
西の風 10kt
24日の 15時(UTC)から 24日の 24時(UTC)まで一時的に
視程: 6000m
高度1400ftの千切れ雲あり
高度1800ftの雲は散在している, 積乱雲.
小雨, 弱いにわか雨
24日の 18時(UTC)から 24日の 21時(UTC)まで徐々に
北西の風 6kt

TAF: EHAM 231716Z 2318/2424 26006KT CAVOK BECMG 2322/2401 21010KT BECMG 2406/2409 25017KT BKN030 PROB30 TEMPO 2408/2412 7000 -RADZ SCT015 BKN020 BECMG 2414/2417 28010KT TEMPO 2415/2424 6000 -RA -SHRA BKN014 SCT018CB BECMG 2418/2421 31006KT

4,000以上の空港の気象観測と天気予報(METAR報とTAF報)

利用可能な観測所は地図上に黄色い丸と赤い丸で示す。

丸の上にカーソルを重ねると観測所名を参照できる。

次にクリックすると気象観測と天気予報を参照できる。

マップの切り替え:黒色「×」印の緑ボタンをクリックして拡大、「-」印の緑ボタンをクリックして縮小、緑色の三角印をクリックして隣りの地図に切り替え


METAR-TAF: